Observation data for Hereford on 12/10/2018      Previous  Date       Current Mesonet Observations  Soil Data  Daily Summary Page  Observations in Plain Language
KHES 100600Z 28008KT M05/M10 A3036 RMK A01 T10531096  RH  071%=      5-min Rain = 0
KHES 100605Z 28008KT M06/M10 A3036 RMK A01 T10551097  RH  072%=      5-min Rain = 0
KHES 100610Z 28007KT M06/M10 A3036 RMK A01 T10571098  RH  073%=      5-min Rain = 0
KHES 100615Z 27007KT M05/M09 A3036 RMK A01 T10541094  RH  073%=      5-min Rain = 0
KHES 100620Z 27007KT M06/M10 A3036 RMK A01 T10551098  RH  071%=      5-min Rain = 0
KHES 100625Z 27007KT M06/M10 A3036 RMK A01 T10601101  RH  073%=      5-min Rain = 0
KHES 100630Z 27007KT M06/M10 A3036 RMK A01 T10631101  RH  074%=      5-min Rain = 0
KHES 100635Z 27007KT M06/M10 A3036 RMK A01 T10641100  RH  075%=      5-min Rain = 0
KHES 100640Z 27007KT M06/M10 A3036 RMK A01 T10621099  RH  075%=      5-min Rain = 0
KHES 100645Z 27007KT M06/M10 A3036 RMK A01 T10581095  RH  075%=      5-min Rain = 0
KHES 100650Z 26008KT M06/M09 A3035 RMK A01 T10561094  RH  075%=      5-min Rain = 0
KHES 100655Z 26008KT M06/M10 A3035 RMK A01 T10571097  RH  073%=      5-min Rain = 0
KHES 100700Z 27006KT M06/M10 A3035 RMK A01 T10581098  RH  073%=      5-min Rain = 0
KHES 100705Z 27007KT M06/M10 A3034 RMK A01 T10581096  RH  074%=      5-min Rain = 0
KHES 100710Z 27008KT M06/M10 A3034 RMK A01 T10561096  RH  073%=      5-min Rain = 0
KHES 100715Z 27008KT M06/M10 A3034 RMK A01 T10551095  RH  073%=      5-min Rain = 0
KHES 100720Z 28007KT M05/M10 A3034 RMK A01 T10541096  RH  072%=      5-min Rain = 0
KHES 100725Z 28008KT M06/M10 A3034 RMK A01 T10561098  RH  072%=      5-min Rain = 0
KHES 100730Z 27007KT M06/M10 A3034 RMK A01 T10571098  RH  072%=      5-min Rain = 0
KHES 100735Z 27007KT M06/M10 A3033 RMK A01 T10591100  RH  073%=      5-min Rain = 0
KHES 100740Z 27008KT M06/M10 A3033 RMK A01 T10601100  RH  073%=      5-min Rain = 0
KHES 100745Z 27008KT M06/M10 A3033 RMK A01 T10591098  RH  074%=      5-min Rain = 0
KHES 100750Z 27008KT M06/M10 A3033 RMK A01 T10581098  RH  073%=      5-min Rain = 0
KHES 100755Z 27008KT M06/M10 A3033 RMK A01 T10581098  RH  073%=      5-min Rain = 0
KHES 100800Z 26007KT M06/M10 A3033 RMK A01 T10591100  RH  073%=      5-min Rain = 0
KHES 100805Z 26007KT M06/M10 A3033 RMK A01 T10631102  RH  074%=      5-min Rain = 0
KHES 100810Z 26008KT M06/M10 A3033 RMK A01 T10641101  RH  075%=      5-min Rain = 0
KHES 100815Z 26008KT M06/M10 A3033 RMK A01 T10631100  RH  074%=      5-min Rain = 0
KHES 100820Z 27006KT M06/M10 A3033 RMK A01 T10631100  RH  075%=      5-min Rain = 0
KHES 100825Z 26008KT M06/M10 A3033 RMK A01 T10621098  RH  075%=      5-min Rain = 0
KHES 100830Z 26006KT M06/M10 A3032 RMK A01 T10601098  RH  075%=      5-min Rain = 0
KHES 100835Z 26007KT M06/M10 A3032 RMK A01 T10611098  RH  075%=      5-min Rain = 0
KHES 100840Z 26007KT M06/M10 A3032 RMK A01 T10591096  RH  075%=      5-min Rain = 0
KHES 100845Z 27006KT M06/M10 A3032 RMK A01 T10591097  RH  075%=      5-min Rain = 0
KHES 100850Z 26006KT M06/M10 A3032 RMK A01 T10611098  RH  075%=      5-min Rain = 0
KHES 100855Z 27006KT M06/M10 A3032 RMK A01 T10631099  RH  075%=      5-min Rain = 0
KHES 100900Z 26006KT M06/M10 A3032 RMK A01 T10631099  RH  076%=      5-min Rain = 0
KHES 100905Z 26007KT M07/M10 A3032 RMK A01 T10661101  RH  076%=      5-min Rain = 0
KHES 100910Z 26008KT M07/M10 A3032 RMK A01 T10681102  RH  076%=      5-min Rain = 0
KHES 100915Z 26007KT M07/M11 A3032 RMK A01 T10711105  RH  077%=      5-min Rain = 0
KHES 100920Z 26007KT M07/M11 A3032 RMK A01 T10721105  RH  077%=      5-min Rain = 0
KHES 100925Z 26007KT M07/M11 A3032 RMK A01 T10731105  RH  077%=      5-min Rain = 0
KHES 100930Z 26007KT M07/M11 A3032 RMK A01 T10741106  RH  077%=      5-min Rain = 0
KHES 100935Z 26007KT M07/M11 A3032 RMK A01 T10741105  RH  078%=      5-min Rain = 0
KHES 100940Z 26007KT M07/M10 A3032 RMK A01 T10731104  RH  079%=      5-min Rain = 0
KHES 100945Z 26008KT M07/M10 A3032 RMK A01 T10731103  RH  079%=      5-min Rain = 0
KHES 100950Z 26008KT M07/M10 A3032 RMK A01 T10721102  RH  079%=      5-min Rain = 0
KHES 100955Z 26008KT M07/M10 A3032 RMK A01 T10711102  RH  079%=      5-min Rain = 0
KHES 101000Z 26008KT M07/M10 A3032 RMK A01 T10691099  RH  079%=      5-min Rain = 0
KHES 101005Z 26009KT M07/M10 A3032 RMK A01 T10681097  RH  079%=      5-min Rain = 0
KHES 101010Z 26009KT M07/M10 A3032 RMK A01 T10661096  RH  079%=      5-min Rain = 0
KHES 101015Z 26009KT M07/M10 A3032 RMK A01 T10671096  RH  079%=      5-min Rain = 0
KHES 101020Z 26008KT M07/M10 A3031 RMK A01 T10691097  RH  080%=      5-min Rain = 0
KHES 101025Z 26008KT M07/M10 A3031 RMK A01 T10701097  RH  081%=      5-min Rain = 0
KHES 101030Z 26007KT M07/M10 A3031 RMK A01 T10701096  RH  081%=      5-min Rain = 0
KHES 101035Z 26007KT M07/M10 A3031 RMK A01 T10701095  RH  082%=      5-min Rain = 0
KHES 101040Z 26007KT M07/M10 A3031 RMK A01 T10731099  RH  082%=      5-min Rain = 0
KHES 101045Z 26007KT M08/M10 A3031 RMK A01 T10751100  RH  082%=      5-min Rain = 0
KHES 101050Z 26007KT M08/M10 A3031 RMK A01 T10771101  RH  083%=      5-min Rain = 0
KHES 101055Z 26007KT M08/M10 A3031 RMK A01 T10771099  RH  084%=      5-min Rain = 0
KHES 101100Z 25008KT M08/M10 A303 RMK A01 T10751097  RH  084%=      5-min Rain = 0
KHES 101105Z 26007KT M08/M10 A303 RMK A01 T10751098  RH  084%=      5-min Rain = 0
KHES 101110Z 26007KT M08/M10 A3031 RMK A01 T10771099  RH  084%=      5-min Rain = 0
KHES 101115Z 27005KT M08/M10 A3031 RMK A01 T10791101  RH  084%=      5-min Rain = 0
KHES 101120Z 26005KT M08/M10 A3031 RMK A01 T10811103  RH  084%=      5-min Rain = 0
KHES 101125Z 26005KT M08/M10 A3031 RMK A01 T10811102  RH  084%=      5-min Rain = 0
KHES 101130Z 25006KT M08/M10 A3031 RMK A01 T10801100  RH  085%=      5-min Rain = 0
KHES 101135Z 25007KT M07/M09 A3031 RMK A01 T10741093  RH  086%=      5-min Rain = 0
KHES 101140Z 24007KT M07/M09 A3031 RMK A01 T10691087  RH  086%=      5-min Rain = 0
KHES 101145Z 24006KT M07/M09 A3031 RMK A01 T10701090  RH  085%=      5-min Rain = 0
KHES 101150Z 23006KT M07/M09 A3031 RMK A01 T10721092  RH  085%=      5-min Rain = 0
KHES 101155Z 23005KT M07/M09 A3031 RMK A01 T10731093  RH  085%=      5-min Rain = 0
KHES 101200Z 23005KT M08/M10 A3031 RMK A01 T10751095  RH  085%=      5-min Rain = 0
KHES 101205Z 24005KT M08/M10 A3031 RMK A01 T10751095  RH  086%=      5-min Rain = 0
KHES 101210Z 24006KT M08/M10 A3031 RMK A01 T10761095  RH  086%=      5-min Rain = 0
KHES 101215Z 24006KT M08/M10 A3031 RMK A01 T10771096  RH  086%=      5-min Rain = 0
KHES 101220Z 24006KT M08/M09 A3032 RMK A01 T10761094  RH  086%=      5-min Rain = 0
KHES 101225Z 25005KT M08/M09 A3032 RMK A01 T10751094  RH  086%=      5-min Rain = 0
KHES 101230Z 26004KT M08/M10 A3032 RMK A01 T10771097  RH  086%=      5-min Rain = 0
KHES 101235Z 26005KT M08/M10 A3032 RMK A01 T10811100  RH  085%=      5-min Rain = 0
KHES 101240Z 26007KT M08/M10 A3032 RMK A01 T10811099  RH  086%=      5-min Rain = 0
KHES 101245Z 25007KT M08/M09 A3032 RMK A01 T10761093  RH  087%=      5-min Rain = 0
KHES 101250Z 25007KT M07/M09 A3032 RMK A01 T10731090  RH  088%=      5-min Rain = 0
KHES 101255Z 23006KT M07/M09 A3032 RMK A01 T10711088  RH  087%=      5-min Rain = 0
KHES 101300Z 23007KT M07/M09 A3032 RMK A01 T10701087  RH  087%=      5-min Rain = 0
KHES 101305Z 23008KT M07/M08 A3031 RMK A01 T10661083  RH  088%=      5-min Rain = 0
KHES 101310Z 23007KT M07/M08 A3031 RMK A01 T10651082  RH  087%=      5-min Rain = 0
KHES 101315Z 24006KT M07/M08 A3032 RMK A01 T10651083  RH  087%=      5-min Rain = 0
KHES 101320Z 25006KT M07/M09 A3032 RMK A01 T10671085  RH  087%=      5-min Rain = 0
KHES 101325Z 24007KT M07/M09 A3032 RMK A01 T10681086  RH  087%=      5-min Rain = 0
KHES 101330Z 24007KT M07/M08 A3032 RMK A01 T10671084  RH  087%=      5-min Rain = 0
KHES 101335Z 25006KT M06/M08 A3032 RMK A01 T10631080  RH  088%=      5-min Rain = 0
KHES 101340Z 26006KT M07/M09 A3032 RMK A01 T10681088  RH  086%=      5-min Rain = 0
KHES 101345Z 27004KT M07/M09 A3033 RMK A01 T10731091  RH  086%=      5-min Rain = 0
KHES 101350Z 32002KT M08/M09 A3033 RMK A01 T10751092  RH  087%=      5-min Rain = 0
KHES 101355Z 29002KT M07/M09 A3033 RMK A01 T10691085  RH  088%=      5-min Rain = 0
KHES 101400Z 28003KT M06/M08 A3033 RMK A01 T10631079  RH  089%=      5-min Rain = 0
KHES 101405Z 29004KT M06/M08 A3033 RMK A01 T10621080  RH  087%=      5-min Rain = 0
KHES 101410Z 27005KT M07/M08 A3033 RMK A01 T10651084  RH  086%=      5-min Rain = 0
KHES 101415Z 26005KT M07/M09 A3033 RMK A01 T10671085  RH  086%=      5-min Rain = 0
KHES 101420Z 26004KT M07/M08 A3033 RMK A01 T10651083  RH  087%=      5-min Rain = 0
KHES 101425Z 26006KT M06/M08 A3033 RMK A01 T10621081  RH  087%=      5-min Rain = 0
KHES 101430Z 26006KT M06/M08 A3033 RMK A01 T10601080  RH  086%=      5-min Rain = 0
KHES 101435Z 25005KT M06/M08 A3034 RMK A01 T10571077  RH  086%=      5-min Rain = 0
KHES 101440Z 25005KT M05/M07 A3034 RMK A01 T10521072  RH  086%=      5-min Rain = 0
KHES 101445Z 24005KT M05/M07 A3034 RMK A01 T10461067  RH  086%=      5-min Rain = 0
KHES 101450Z 24004KT M04/M06 A3034 RMK A01 T10411063  RH  084%=      5-min Rain = 0
KHES 101455Z 24004KT M04/M06 A3034 RMK A01 T10361061  RH  083%=      5-min Rain = 0
KHES 101500Z 25004KT M03/M06 A3034 RMK A01 T10301058  RH  081%=      5-min Rain = 0
KHES 101505Z 24004KT M02/M06 A3034 RMK A01 T10241055  RH  079%=      5-min Rain = 0
KHES 101510Z 24005KT M02/M05 A3035 RMK A01 T10181054  RH  077%=      5-min Rain = 0
KHES 101515Z 25004KT M01/M05 A3035 RMK A01 T10141053  RH  075%=      5-min Rain = 0
KHES 101520Z 24003KT M01/M05 A3035 RMK A01 T10091049  RH  074%=      5-min Rain = 0
KHES 101525Z 23003KT M00/M05 A3035 RMK A01 T10031045  RH  074%=      5-min Rain = 0
KHES 101530Z 26004KT 00/M04 A3035 RMK A01 T00031040  RH  073%=      5-min Rain = 0
KHES 101535Z 26003KT 01/M04 A3035 RMK A01 T00091037  RH  072%=      5-min Rain = 0
KHES 101540Z 26004KT 01/M04 A3035 RMK A01 T00121038  RH  070%=      5-min Rain = 0
KHES 101545Z 26003KT 02/M04 A3035 RMK A01 T00151037  RH  069%=      5-min Rain = 0
KHES 101550Z 26002KT 02/M04 A3035 RMK A01 T00201035  RH  068%=      5-min Rain = 0
KHES 101555Z 29004KT 02/M04 A3035 RMK A01 T00231036  RH  065%=      5-min Rain = 0
KHES 101600Z 28003KT 03/M03 A3035 RMK A01 T00281033  RH  065%=      5-min Rain = 0
KHES 101605Z 28003KT 03/M03 A3035 RMK A01 T00321032  RH  063%=      5-min Rain = 0
KHES 101610Z 27003KT 04/M03 A3035 RMK A01 T00361030  RH  062%=      5-min Rain = 0
KHES 101615Z 24004KT 04/M03 A3035 RMK A01 T00401030  RH  061%=      5-min Rain = 0
KHES 101620Z 24005KT 05/M03 A3035 RMK A01 T00461029  RH  059%=      5-min Rain = 0
KHES 101625Z 24005KT 05/M03 A3035 RMK A01 T00491028  RH  058%=      5-min Rain = 0
KHES 101630Z 24005KT 05/M03 A3035 RMK A01 T00521026  RH  058%=      5-min Rain = 0
KHES 101635Z 25004KT 06/M02 A3035 RMK A01 T00561023  RH  057%=      5-min Rain = 0
KHES 101640Z 24003KT 06/M02 A3035 RMK A01 T00611022  RH  056%=      5-min Rain = 0
KHES 101645Z 24003KT 06/M02 A3035 RMK A01 T00631022  RH  055%=      5-min Rain = 0
KHES 101650Z 25004KT 06/M02 A3034 RMK A01 T00641022  RH  054%=      5-min Rain = 0
KHES 101655Z 27005KT 07/M02 A3034 RMK A01 T00671021  RH  054%=      5-min Rain = 0
KHES 101700Z 27005KT 07/M02 A3034 RMK A01 T00711018  RH  053%=      5-min Rain = 0
KHES 101705Z 27005KT 07/M02 A3034 RMK A01 T00731019  RH  053%=      5-min Rain = 0
KHES 101710Z 26004KT 08/M02 A3034 RMK A01 T00761018  RH  052%=      5-min Rain = 0
KHES 101715Z 25005KT 08/M02 A3034 RMK A01 T00781019  RH  051%=      5-min Rain = 0
KHES 101720Z 25006KT 08/M02 A3034 RMK A01 T00791018  RH  051%=      5-min Rain = 0
KHES 101725Z 24005KT 08/M02 A3033 RMK A01 T00831017  RH  050%=      5-min Rain = 0
KHES 101730Z 25004KT 09/M02 A3033 RMK A01 T00861016  RH  049%=      5-min Rain = 0
KHES 101735Z 29005KT 09/M02 A3033 RMK A01 T00921016  RH  047%=      5-min Rain = 0
KHES 101740Z 27006KT 10/M02 A3033 RMK A01 T00951019  RH  045%=      5-min Rain = 0
KHES 101745Z 28005KT 10/M02 A3033 RMK A01 T00961018  RH  045%=      5-min Rain = 0
KHES 101750Z 28005KT 10/M02 A3032 RMK A01 T00971019  RH  044%=      5-min Rain = 0
KHES 101755Z 27003KT 10/M02 A3032 RMK A01 T00981019  RH  044%=      5-min Rain = 0
KHES 101800Z 24004KT 10/M02 A3032 RMK A01 T00981018  RH  044%=      5-min Rain = 0
KHES 101805Z 26004KT 10/M02 A3031 RMK A01 T01001020  RH  043%=      5-min Rain = 0
KHES 101810Z 26003KT 10/M02 A3031 RMK A01 T01011022  RH  043%=      5-min Rain = 0
KHES 101815Z 24005KT 10/M02 A3031 RMK A01 T01041024  RH  041%=      5-min Rain = 0
KHES 101820Z 24006KT 11/M03 A3031 RMK A01 T01061027  RH  040%=      5-min Rain = 0
KHES 101825Z 25005KT 11/M03 A303 RMK A01 T01071028  RH  039%=      5-min Rain = 0
KHES 101830Z 25005KT 11/M03 A303 RMK A01 T01071028  RH  039%=      5-min Rain = 0
KHES 101835Z 24004KT 11/M03 A303 RMK A01 T01091027  RH  039%=      5-min Rain = 0
KHES 101840Z 26005KT 11/M03 A3029 RMK A01 T01111031  RH  037%=      5-min Rain = 0
KHES 101845Z 26005KT 11/M03 A3029 RMK A01 T01141030  RH  037%=      5-min Rain = 0
KHES 101850Z 26006KT 12/M03 A3029 RMK A01 T01151034  RH  035%=      5-min Rain = 0
KHES 101855Z 29004KT 12/M04 A3028 RMK A01 T01161040  RH  034%=      5-min Rain = 0
KHES 101900Z 28005G10KT 12/M04 A3028 RMK A01 T01161041  RH  033%=      5-min Rain = 0
KHES 101905Z 26005KT 12/M04 A3028 RMK A01 T01171040  RH  033%=      5-min Rain = 0
KHES 101910Z 24006KT 12/M05 A3028 RMK A01 T01181046  RH  031%=      5-min Rain = 0
KHES 101915Z 24006KT 12/M04 A3027 RMK A01 T01191044  RH  032%=      5-min Rain = 0
KHES 101920Z 26005KT 12/M05 A3027 RMK A01 T01201050  RH  030%=      5-min Rain = 0
KHES 101925Z 24003KT 12/M05 A3027 RMK A01 T01211047  RH  031%=      5-min Rain = 0
KHES 101930Z 23006KT 13/M05 A3027 RMK A01 T01251051  RH  029%=      5-min Rain = 0
KHES 101935Z 25006KT 12/M06 A3026 RMK A01 T01241062  RH  027%=      5-min Rain = 0
KHES 101940Z 26005KT 13/M06 A3026 RMK A01 T01251062  RH  027%=      5-min Rain = 0
KHES 101945Z 28005KT 13/M06 A3026 RMK A01 T01281058  RH  027%=      5-min Rain = 0
KHES 101950Z 25005KT 13/M06 A3026 RMK A01 T01281057  RH  027%=      5-min Rain = 0
KHES 101955Z 22005KT 13/M06 A3026 RMK A01 T01291055  RH  027%=      5-min Rain = 0
KHES 102000Z 26003G12KT 13/M06 A3025 RMK A01 T01321059  RH  026%=      5-min Rain = 0
KHES 102005Z 28003KT 13/M06 A3025 RMK A01 T01331058  RH  026%=      5-min Rain = 0
KHES 102010Z 21002KT 14/M05 A3025 RMK A01 T01361054  RH  026%=      5-min Rain = 0
KHES 102015Z 23003KT 14/M06 A3025 RMK A01 T01351056  RH  026%=      5-min Rain = 0
KHES 102020Z 25005G11KT 14/M06 A3025 RMK A01 T01361059  RH  025%=      5-min Rain = 0
KHES 102025Z 26006KT 14/M06 A3024 RMK A01 T01381059  RH  025%=      5-min Rain = 0
KHES 102030Z 26004KT 14/M06 A3024 RMK A01 T01371062  RH  025%=      5-min Rain = 0
KHES 102035Z 23006G11KT 14/M06 A3024 RMK A01 T01381062  RH  025%=      5-min Rain = 0
KHES 102040Z 24006KT 14/M07 A3024 RMK A01 T01381069  RH  023%=      5-min Rain = 0
KHES 102045Z 28005KT 14/M07 A3024 RMK A01 T01411070  RH  023%=      5-min Rain = 0
KHES 102050Z 27007KT 14/M07 A3024 RMK A01 T01401070  RH  023%=      5-min Rain = 0
KHES 102055Z 28003G8KT 14/M08 A3024 RMK A01 T01381075  RH  022%=      5-min Rain = 0
KHES 102100Z 24007KT 14/M07 A3024 RMK A01 T01401068  RH  023%=      5-min Rain = 0
KHES 102105Z 25004KT 14/M07 A3024 RMK A01 T01401070  RH  023%=      5-min Rain = 0
KHES 102110Z 24005KT 14/M07 A3023 RMK A01 T01401067  RH  023%=      5-min Rain = 0
KHES 102115Z 22005KT 14/M07 A3023 RMK A01 T01411066  RH  023%=      5-min Rain = 0
KHES 102120Z 24007KT 14/M07 A3023 RMK A01 T01421070  RH  022%=      5-min Rain = 0
KHES 102125Z 21007KT 14/M07 A3023 RMK A01 T01411072  RH  022%=      5-min Rain = 0
KHES 102130Z 21007KT 14/M07 A3023 RMK A01 T01401072  RH  022%=      5-min Rain = 0
KHES 102135Z 23004KT 14/M08 A3023 RMK A01 T01411075  RH  022%=      5-min Rain = 0
KHES 102140Z 23008KT 14/M07 A3023 RMK A01 T01411072  RH  022%=      5-min Rain = 0
KHES 102145Z 23007KT 14/M07 A3023 RMK A01 T01401068  RH  023%=      5-min Rain = 0
KHES 102150Z 22004KT 14/M07 A3023 RMK A01 T01401069  RH  023%=      5-min Rain = 0
KHES 102155Z 21006KT 14/M06 A3022 RMK A01 T01421064  RH  023%=      5-min Rain = 0
KHES 102200Z 21007KT 14/M06 A3022 RMK A01 T01421062  RH  024%=      5-min Rain = 0
KHES 102205Z 22007KT 14/M07 A3022 RMK A01 T01391068  RH  023%=      5-min Rain = 0
KHES 102210Z 20006KT 14/M07 A3022 RMK A01 T01391069  RH  023%=      5-min Rain = 0
KHES 102215Z 21007KT 14/M07 A3022 RMK A01 T01381071  RH  023%=      5-min Rain = 0
KHES 102220Z 22007KT 14/M08 A3023 RMK A01 T01371075  RH  022%=      5-min Rain = 0
KHES 102225Z 22007KT 14/M08 A3023 RMK A01 T01351076  RH  022%=      5-min Rain = 0
KHES 102230Z 22006KT 13/M08 A3023 RMK A01 T01311079  RH  022%=      5-min Rain = 0
KHES 102235Z 21006KT 13/M08 A3023 RMK A01 T01281082  RH  022%=      5-min Rain = 0
KHES 102240Z 22006KT 13/M09 A3023 RMK A01 T01251086  RH  022%=      5-min Rain = 0
KHES 102245Z 22005KT 12/M09 A3023 RMK A01 T01211085  RH  023%=      5-min Rain = 0
KHES 102250Z 21005KT 12/M08 A3023 RMK A01 T01171083  RH  024%=      5-min Rain = 0
KHES 102255Z 20006KT 11/M08 A3023 RMK A01 T01121081  RH  025%=      5-min Rain = 0
KHES 102300Z 20006KT 11/M08 A3023 RMK A01 T01081078  RH  026%=      5-min Rain = 0
KHES 102305Z 20006KT 10/M08 A3023 RMK A01 T01041078  RH  027%=      5-min Rain = 0
KHES 102310Z 20006KT 10/M08 A3023 RMK A01 T01031079  RH  027%=      5-min Rain = 0
KHES 102315Z 21006KT 10/M08 A3023 RMK A01 T00991078  RH  028%=      5-min Rain = 0
KHES 102320Z 21006KT 09/M08 A3023 RMK A01 T00931077  RH  029%=      5-min Rain = 0
KHES 102325Z 22006KT 09/M08 A3023 RMK A01 T00871079  RH  030%=      5-min Rain = 0
KHES 102330Z 21007KT 08/M08 A3023 RMK A01 T00831080  RH  031%=      5-min Rain = 0
KHES 102335Z 21007KT 08/M08 A3023 RMK A01 T00791082  RH  031%=      5-min Rain = 0
KHES 102340Z 22007KT 08/M08 A3023 RMK A01 T00751081  RH  032%=      5-min Rain = 0
KHES 102345Z 21007KT 07/M08 A3023 RMK A01 T00701080  RH  033%=      5-min Rain = 0
KHES 102350Z 21006KT 07/M08 A3023 RMK A01 T00651081  RH  034%=      5-min Rain = 0
KHES 102355Z 21006KT 06/M08 A3023 RMK A01 T00611079  RH  036%=      5-min Rain = 0
KHES 110000Z 21006KT 06/M08 A3023 RMK A01 T00581077  RH  037%=      5-min Rain = 0
KHES 110005Z 21006KT 06/M08 A3023 RMK A01 T00571076  RH  038%=      5-min Rain = 0
KHES 110010Z 21006KT 06/M08 A3023 RMK A01 T00561078  RH  037%=      5-min Rain = 0
KHES 110015Z 20006KT 05/M08 A3023 RMK A01 T00541078  RH  038%=      5-min Rain = 0
KHES 110020Z 20006KT 05/M08 A3023 RMK A01 T00541078  RH  038%=      5-min Rain = 0
KHES 110025Z 20007KT 05/M08 A3023 RMK A01 T00541079  RH  038%=      5-min Rain = 0
KHES 110030Z 21007KT 05/M08 A3023 RMK A01 T00481080  RH  039%=      5-min Rain = 0
KHES 110035Z 20006KT 05/M08 A3023 RMK A01 T00481078  RH  040%=      5-min Rain = 0
KHES 110040Z 20006KT 04/M08 A3023 RMK A01 T00431079  RH  041%=      5-min Rain = 0
KHES 110045Z 20005KT 04/M08 A3023 RMK A01 T00401078  RH  042%=      5-min Rain = 0
KHES 110050Z 20005KT 03/M08 A3023 RMK A01 T00341079  RH  043%=      5-min Rain = 0
KHES 110055Z 21005KT 03/M08 A3023 RMK A01 T00331078  RH  044%=      5-min Rain = 0
KHES 110100Z 20005KT 03/M08 A3023 RMK A01 T00261080  RH  046%=      5-min Rain = 0
KHES 110105Z 20004KT 03/M08 A3023 RMK A01 T00281077  RH  046%=      5-min Rain = 0
KHES 110110Z 20005KT 03/M08 A3023 RMK A01 T00311079  RH  044%=      5-min Rain = 0
KHES 110115Z 19005KT 04/M08 A3023 RMK A01 T00361080  RH  042%=      5-min Rain = 0
KHES 110120Z 19005KT 04/M08 A3023 RMK A01 T00361081  RH  042%=      5-min Rain = 0
KHES 110125Z 20005KT 03/M08 A3023 RMK A01 T00341081  RH  042%=      5-min Rain = 0
KHES 110130Z 21007KT 03/M08 A3024 RMK A01 T00281082  RH  044%=      5-min Rain = 0
KHES 110135Z 20009KT 03/M08 A3024 RMK A01 T00251078  RH  047%=      5-min Rain = 0
KHES 110140Z 20010KT 04/M07 A3024 RMK A01 T00361074  RH  044%=      5-min Rain = 0
KHES 110145Z 19007KT 04/M07 A3024 RMK A01 T00411074  RH  043%=      5-min Rain = 0
KHES 110150Z 18006KT 03/M08 A3024 RMK A01 T00321075  RH  045%=      5-min Rain = 0
KHES 110155Z 20007KT 03/M07 A3024 RMK A01 T00291072  RH  047%=      5-min Rain = 0
KHES 110200Z 20006KT 02/M07 A3024 RMK A01 T00201073  RH  050%=      5-min Rain = 0
KHES 110205Z 21005KT 02/M07 A3024 RMK A01 T00161072  RH  052%=      5-min Rain = 0
KHES 110210Z 20005KT 02/M07 A3024 RMK A01 T00161071  RH  052%=      5-min Rain = 0
KHES 110215Z 17005KT 01/M07 A3024 RMK A01 T00111071  RH  054%=      5-min Rain = 0
KHES 110220Z 18005KT 00/M07 A3024 RMK A01 T00041070  RH  058%=      5-min Rain = 0
KHES 110225Z 18008KT 00/M07 A3024 RMK A01 T00021066  RH  060%=      5-min Rain = 0
KHES 110230Z 19007KT 00/M07 A3024 RMK A01 T00011067  RH  060%=      5-min Rain = 0
KHES 110235Z 19007KT M00/M07 A3024 RMK A01 T10011065  RH  062%=      5-min Rain = 0
KHES 110240Z 19007KT 00/06 A3024 RMK A01 T00-00-63  RH  063%=      5-min Rain = 0
KHES 110245Z 19007KT 00/M06 A3024 RMK A01 T00011061  RH  063%=      5-min Rain = 0
KHES 110250Z 20007KT 00/M06 A3024 RMK A01 T00011061  RH  063%=      5-min Rain = 0
KHES 110255Z 20007KT 00/M06 A3024 RMK A01 T00011061  RH  063%=      5-min Rain = 0
KHES 110300Z 20006KT M00/M06 A3024 RMK A01 T10041063  RH  064%=      5-min Rain = 0
KHES 110305Z 20007KT M00/M06 A3025 RMK A01 T10031062  RH  064%=      5-min Rain = 0
KHES 110310Z 21006KT M01/M06 A3025 RMK A01 T10051064  RH  064%=      5-min Rain = 0
KHES 110315Z 21007KT M01/M07 A3025 RMK A01 T10081065  RH  065%=      5-min Rain = 0
KHES 110320Z 21006KT M01/M07 A3025 RMK A01 T10091065  RH  066%=      5-min Rain = 0
KHES 110325Z 21005KT M01/M07 A3024 RMK A01 T10111067  RH  066%=      5-min Rain = 0
KHES 110330Z 22006KT M02/M07 A3024 RMK A01 T10161069  RH  067%=      5-min Rain = 0
KHES 110335Z 22006KT M02/M07 A3024 RMK A01 T10171068  RH  068%=      5-min Rain = 0
KHES 110340Z 21007KT M02/M07 A3024 RMK A01 T10181066  RH  070%=      5-min Rain = 0
KHES 110345Z 20006KT M02/M07 A3024 RMK A01 T10171066  RH  069%=      5-min Rain = 0
KHES 110350Z 20007KT M02/M07 A3024 RMK A01 T10181066  RH  069%=      5-min Rain = 0
KHES 110355Z 20007KT M02/M07 A3024 RMK A01 T10171067  RH  069%=      5-min Rain = 0
KHES 110400Z 20007KT M02/M07 A3024 RMK A01 T10201070  RH  069%=      5-min Rain = 0
KHES 110405Z 19005KT M03/M07 A3025 RMK A01 T10251072  RH  070%=      5-min Rain = 0
KHES 110410Z 20007KT M03/M07 A3025 RMK A01 T10261071  RH  071%=      5-min Rain = 0
KHES 110415Z 21007KT M02/M07 A3025 RMK A01 T10211069  RH  070%=      5-min Rain = 0
KHES 110420Z 21008KT M02/M07 A3024 RMK A01 T10181069  RH  068%=      5-min Rain = 0
KHES 110425Z 21008KT M02/M07 A3024 RMK A01 T10181069  RH  068%=      5-min Rain = 0
KHES 110430Z 21008KT M02/M07 A3024 RMK A01 T10171069  RH  068%=      5-min Rain = 0
KHES 110435Z 21007KT M02/M07 A3024 RMK A01 T10181070  RH  068%=      5-min Rain = 0
KHES 110440Z 21007KT M02/M07 A3024 RMK A01 T10191070  RH  068%=      5-min Rain = 0
KHES 110445Z 22007KT M02/M07 A3024 RMK A01 T10211071  RH  069%=      5-min Rain = 0
KHES 110450Z 21007KT M02/M07 A3024 RMK A01 T10231071  RH  070%=      5-min Rain = 0
KHES 110455Z 21007KT M02/M07 A3024 RMK A01 T10201070  RH  069%=      5-min Rain = 0
KHES 110500Z 21007KT M02/M07 A3024 RMK A01 T10211071  RH  069%=      5-min Rain = 0
KHES 110505Z 21006KT M02/M07 A3024 RMK A01 T10231072  RH  069%=      5-min Rain = 0
KHES 110510Z 22008KT M03/M07 A3023 RMK A01 T10251072  RH  070%=      5-min Rain = 0
KHES 110515Z 21007KT M03/M07 A3024 RMK A01 T10251072  RH  070%=      5-min Rain = 0
KHES 110520Z 22007KT M03/M07 A3023 RMK A01 T10261072  RH  071%=      5-min Rain = 0
KHES 110525Z 21007KT M03/M07 A3023 RMK A01 T10271072  RH  071%=      5-min Rain = 0
KHES 110530Z 21007KT M03/M07 A3023 RMK A01 T10261072  RH  071%=      5-min Rain = 0
KHES 110535Z 21007KT M03/M07 A3023 RMK A01 T10261072  RH  071%=      5-min Rain = 0
KHES 110540Z 22007KT M03/M07 A3023 RMK A01 T10261073  RH  070%=      5-min Rain = 0
KHES 110545Z 22007KT M03/M07 A3023 RMK A01 T10271074  RH  070%=      5-min Rain = 0
KHES 110550Z 22007KT M03/M07 A3023 RMK A01 T10271073  RH  071%=      5-min Rain = 0
KHES 110555Z 22007KT M03/M07 A3023 RMK A01 T10261072  RH  071%=      5-min Rain = 0

Page generated in 0.009 seconds.